Time;durP1;ratioP1;P1;durP2;ratioP2;P2;SDS_P1;SDS_P2;PMS_P1;PMS_P2;Temp;Humidity;BMP_temperature;BMP_pressure;BME280_temperature;BME280_humidity;BME280_pressure;Samples;Min_cycle;Max_cycle;Signal;HPM_P1;HPM_P2
2023/03/10 00:02:09;;;;;;;2.47;1.60;;;12.10;98.00;;;;;;5052079;28;20456;-67
2023/03/10 00:04:36;;;;;;;2.03;1.33;;;12.10;98.00;;;;;;5051872;28;20488;-67
2023/03/10 00:07:03;;;;;;;2.30;1.40;;;12.10;98.00;;;;;;5051928;28;20458;-67
2023/03/10 00:09:31;;;;;;;1.40;1.23;;;12.10;98.00;;;;;;5051899;28;20462;-67
2023/03/10 00:11:58;;;;;;;2.40;1.33;;;12.20;98.00;;;;;;5051857;28;20454;-68
2023/03/10 00:14:25;;;;;;;3.57;1.57;;;12.10;98.00;;;;;;5051706;28;20459;-67
2023/03/10 00:16:54;;;;;;;2.20;1.37;;;12.10;98.00;;;;;;5033136;28;20468;-67
2023/03/10 00:19:21;;;;;;;2.20;1.40;;;12.10;98.00;;;;;;5033966;28;20468;-67
2023/03/10 00:21:48;;;;;;;1.20;1.17;;;12.00;98.00;;;;;;5051662;28;20465;-68
2023/03/10 00:24:15;;;;;;;1.60;1.50;;;12.00;98.00;;;;;;5034091;28;20531;-68
2023/03/10 00:26:44;;;;;;;2.03;1.20;;;12.00;98.00;;;;;;5051589;28;20463;-67
2023/03/10 00:29:11;;;;;;;2.63;1.30;;;12.10;98.00;;;;;;5051428;28;20457;-67
2023/03/10 00:31:39;;;;;;;1.30;1.10;;;12.10;98.00;;;;;;5051828;28;20882;-67
2023/03/10 00:34:07;;;;;;;1.53;1.30;;;12.10;98.00;;;;;;5051302;28;20843;-68
2023/03/10 00:36:35;;;;;;;2.60;1.50;;;12.10;98.00;;;;;;5051429;28;20462;-67
2023/03/10 00:39:03;;;;;;;1.37;1.20;;;12.10;98.00;;;;;;5051635;28;20454;-67
2023/03/10 00:41:35;;;;;;;1.93;1.47;;;12.10;98.00;;;;;;5051414;28;20474;-67
2023/03/10 00:44:03;;;;;;;1.30;1.20;;;12.10;98.00;;;;;;5051543;28;20551;-68
2023/03/10 00:46:31;;;;;;;2.20;1.33;;;12.10;98.00;;;;;;5051426;28;21006;-67
2023/03/10 00:49:05;;;;;;;1.33;1.20;;;12.10;98.00;;;;;;5051735;28;20526;-67
2023/03/10 00:51:34;;;;;;;1.97;1.27;;;12.10;98.00;;;;;;5051387;28;20961;-67
2023/03/10 00:54:02;;;;;;;1.30;1.30;;;12.00;98.00;;;;;;5051446;28;20952;-67
2023/03/10 00:56:30;;;;;;;3.53;1.57;;;12.00;98.00;;;;;;5047021;28;20465;-67
2023/03/10 00:58:59;;;;;;;5.60;1.60;;;12.00;98.00;;;;;;5031117;28;20462;-68
2023/03/10 01:01:28;;;;;;;1.40;1.23;;;12.00;98.00;;;;;;5031370;28;20455;-67
2023/03/10 01:03:58;;;;;;;1.60;1.40;;;11.90;98.00;;;;;;5031109;28;20817;-68
2023/03/10 01:06:25;;;;;;;1.80;1.30;;;11.90;98.00;;;;;;5031424;28;20821;-68
2023/03/10 01:08:54;;;;;;;1.30;1.10;;;11.80;98.00;;;;;;5030959;28;20924;-67
2023/03/10 01:11:24;;;;;;;1.50;1.40;;;11.80;98.00;;;;;;5031105;28;20454;-67
2023/03/10 01:13:51;;;;;;;2.10;1.43;;;11.90;98.00;;;;;;5031026;28;20956;-68
2023/03/10 01:16:18;;;;;;;1.50;1.40;;;11.90;98.00;;;;;;5031460;28;20447;-68
2023/03/10 01:18:45;;;;;;;3.47;1.60;;;11.80;98.00;;;;;;5031016;28;20459;-67
2023/03/10 01:21:17;;;;;;;1.40;1.30;;;11.80;98.00;;;;;;5031030;28;20992;-67
2023/03/10 01:23:45;;;;;;;4.90;1.80;;;11.70;98.00;;;;;;5030975;28;20504;-67
2023/03/10 01:26:13;;;;;;;3.00;1.43;;;11.60;98.00;;;;;;5031060;28;20677;-67
2023/03/10 01:28:41;;;;;;;1.57;1.10;;;11.60;98.00;;;;;;5032326;28;20457;-67
2023/03/10 01:31:08;;;;;;;3.00;1.40;;;11.60;98.00;;;;;;5035366;28;20458;-67
2023/03/10 01:33:38;;;;;;;1.80;1.50;;;11.50;98.00;;;;;;5034917;28;20468;-67
2023/03/10 01:36:07;;;;;;;1.83;1.33;;;11.50;98.00;;;;;;5034853;28;20964;-67
2023/03/10 01:38:34;;;;;;;6.80;1.53;;;11.40;98.00;;;;;;5034758;28;20977;-68
2023/03/10 01:41:02;;;;;;;1.47;1.43;;;11.40;98.00;;;;;;5034962;28;20457;-68
2023/03/10 01:43:33;;;;;;;2.70;1.40;;;11.50;98.00;;;;;;5034932;28;20458;-67
2023/03/10 01:46:45;;;;;;;2.27;1.40;;;11.40;98.00;;;;;;5034959;28;20490;-67
2023/03/10 01:49:24;;;;;;;1.50;1.43;;;11.30;98.00;;;;;;5034752;28;20480;-67
2023/03/10 01:51:56;;;;;;;2.13;1.23;;;11.20;98.00;;;;;;5034602;28;20469;-68
2023/03/10 01:54:28;;;;;;;1.70;1.37;;;11.30;98.00;;;;;;5034595;28;20459;-68
2023/03/10 01:56:57;;;;;;;1.50;1.27;;;11.30;98.00;;;;;;5034524;28;20521;-68
2023/03/10 01:59:27;;;;;;;2.63;1.30;;;11.40;98.00;;;;;;5033252;28;20456;-67
2023/03/10 02:01:56;;;;;;;1.50;1.40;;;11.40;98.00;;;;;;5034393;28;20542;-68
2023/03/10 02:04:34;;;;;;;3.13;1.67;;;11.40;98.00;;;;;;5034237;28;20951;-67
2023/03/10 02:07:04;;;;;;;2.63;1.30;;;11.40;98.00;;;;;;5034385;28;20490;-67
2023/03/10 02:09:35;;;;;;;1.40;1.10;;;11.50;98.00;;;;;;5034186;28;20500;-68
2023/03/10 02:12:04;;;;;;;1.23;1.13;;;11.60;98.00;;;;;;5034149;28;20517;-68
2023/03/10 02:14:34;;;;;;;1.63;1.47;;;11.70;98.00;;;;;;5034053;28;20556;-67
2023/03/10 02:17:02;;;;;;;2.90;1.10;;;11.70;98.00;;;;;;5034109;28;20454;-68
2023/03/10 02:19:55;;;;;;;1.83;1.20;;;11.80;98.00;;;;;;5034076;28;20484;-67
2023/03/10 02:22:22;;;;;;;2.07;1.30;;;11.80;98.00;;;;;;5034230;28;20469;-67
2023/03/10 02:24:52;;;;;;;3.80;1.40;;;11.90;98.00;;;;;;5032742;28;20596;-68
2023/03/10 02:27:23;;;;;;;1.57;1.20;;;12.00;98.00;;;;;;5034094;28;20667;-67
2023/03/10 02:29:56;;;;;;;1.80;1.50;;;12.00;98.00;;;;;;5033791;28;20479;-68
2023/03/10 02:32:24;;;;;;;1.30;1.20;;;12.00;98.00;;;;;;5034015;28;20467;-67
2023/03/10 02:34:51;;;;;;;1.93;1.20;;;12.00;98.00;;;;;;5033692;28;20466;-67
2023/03/10 02:37:22;;;;;;;1.80;1.50;;;12.00;98.00;;;;;;5033797;28;20465;-67
2023/03/10 02:39:49;;;;;;;1.20;1.20;;;12.00;98.00;;;;;;5032703;28;20817;-67
2023/03/10 02:42:17;;;;;;;2.60;1.60;;;12.00;98.00;;;;;;5034233;28;20475;-67
2023/03/10 02:44:48;;;;;;;1.40;1.20;;;12.00;98.00;;;;;;5033786;28;20515;-67
2023/03/10 02:47:17;;;;;;;1.83;1.40;;;11.90;98.00;;;;;;5033798;28;20521;-68
2023/03/10 02:49:45;;;;;;;2.27;1.50;;;11.80;98.00;;;;;;5033711;28;20873;-68
2023/03/10 02:52:21;;;;;;;1.33;1.20;;;11.70;98.00;;;;;;5033645;28;20870;-67
2023/03/10 02:54:48;;;;;;;1.47;1.27;;;11.80;98.00;;;;;;5033435;28;20873;-67
2023/03/10 02:57:15;;;;;;;1.20;1.20;;;11.70;98.00;;;;;;5032381;28;20510;-67
2023/03/10 02:59:42;;;;;;;1.40;1.27;;;11.70;98.00;;;;;;5033306;28;20861;-67
2023/03/10 03:02:11;;;;;;;3.10;1.33;;;11.60;98.00;;;;;;5033373;28;20465;-68
2023/03/10 03:04:40;;;;;;;1.50;1.20;;;11.60;98.00;;;;;;5033170;28;20451;-67
2023/03/10 03:07:07;;;;;;;1.40;1.20;;;11.60;98.00;;;;;;5033203;28;20486;-67
2023/03/10 03:09:34;;;;;;;1.60;1.27;;;11.50;98.00;;;;;;5032690;28;20462;-67
2023/03/10 03:12:01;;;;;;;1.20;1.00;;;11.50;98.00;;;;;;5033220;28;20505;-67
2023/03/10 03:14:28;;;;;;;1.30;1.10;;;11.50;98.00;;;;;;5033210;28;20866;-67
2023/03/10 03:16:56;;;;;;;1.30;1.20;;;11.50;98.00;;;;;;5033056;28;20464;-67
2023/03/10 03:19:24;;;;;;;1.37;1.20;;;11.40;98.00;;;;;;5033187;28;20818;-67
2023/03/10 03:21:52;;;;;;;1.97;1.40;;;11.40;98.00;;;;;;5033341;28;20464;-68
2023/03/10 03:24:21;;;;;;;1.40;1.10;;;11.40;98.00;;;;;;5031879;28;20950;-67
2023/03/10 03:26:48;;;;;;;1.20;1.10;;;11.40;98.00;;;;;;5032865;28;20486;-67
2023/03/10 03:29:16;;;;;;;1.40;1.10;;;11.40;98.00;;;;;;5033367;28;20452;-68
2023/03/10 03:31:43;;;;;;;1.73;1.30;;;11.40;98.00;;;;;;5033943;28;20454;-67
2023/03/10 03:34:11;;;;;;;1.20;1.00;;;11.30;98.00;;;;;;5033162;28;20467;-67
2023/03/10 03:36:39;;;;;;;1.77;1.10;;;11.40;98.00;;;;;;5033661;28;20462;-68
2023/03/10 03:39:06;;;;;;;1.40;1.10;;;11.40;98.00;;;;;;5032973;28;20456;-68
2023/03/10 03:41:34;;;;;;;1.20;1.10;;;11.40;98.00;;;;;;5032831;28;20865;-67
2023/03/10 03:44:01;;;;;;;2.03;1.10;;;11.30;98.00;;;;;;5031817;28;20467;-68
2023/03/10 03:46:28;;;;;;;1.20;1.10;;;11.30;98.00;;;;;;5032918;28;20488;-68
2023/03/10 03:48:55;;;;;;;1.30;1.10;;;11.30;98.00;;;;;;5032788;28;20465;-68
2023/03/10 03:51:22;;;;;;;1.20;1.00;;;11.30;98.00;;;;;;5032285;28;20509;-67
2023/03/10 03:53:51;;;;;;;1.50;1.10;;;11.30;98.00;;;;;;5031151;28;21280;-67
2023/03/10 03:56:19;;;;;;;1.30;1.03;;;11.20;98.00;;;;;;5032250;28;20533;-67
2023/03/10 03:58:46;;;;;;;1.13;1.00;;;11.20;98.00;;;;;;5032448;28;20453;-67
2023/03/10 04:01:24;;;;;;;1.20;1.00;;;11.30;98.00;;;;;;5032515;28;20460;-67
2023/03/10 04:03:51;;;;;;;1.20;1.00;;;11.30;98.00;;;;;;5032178;28;20470;-68
2023/03/10 04:06:18;;;;;;;1.30;1.30;;;11.30;98.00;;;;;;5032192;28;20488;-68
2023/03/10 04:08:45;;;;;;;1.20;1.10;;;11.30;98.00;;;;;;5031029;28;20526;-68
2023/03/10 04:11:14;;;;;;;1.30;1.20;;;11.20;98.00;;;;;;5032065;28;20463;-67
2023/03/10 04:13:43;;;;;;;1.73;1.00;;;11.20;98.00;;;;;;5032016;28;20466;-67
2023/03/10 04:16:10;;;;;;;3.20;1.00;;;11.20;98.00;;;;;;5032011;28;20553;-67
2023/03/10 04:18:37;;;;;;;1.20;0.93;;;11.30;98.00;;;;;;5031844;28;20469;-67
2023/03/10 04:21:04;;;;;;;1.83;1.10;;;11.20;98.00;;;;;;5031814;28;20943;-68
2023/03/10 04:23:40;;;;;;;1.20;1.00;;;11.20;98.00;;;;;;5031858;28;20484;-68
2023/03/10 04:26:08;;;;;;;2.60;1.10;;;11.20;98.00;;;;;;5031631;28;20520;-67
2023/03/10 04:28:37;;;;;;;1.20;1.00;;;11.10;98.00;;;;;;5031538;28;20461;-67
2023/03/10 04:31:04;;;;;;;1.20;1.00;;;11.10;98.00;;;;;;5031863;28;20470;-67
2023/03/10 04:33:31;;;;;;;1.20;1.00;;;11.10;98.00;;;;;;5031481;28;20467;-67
2023/03/10 04:36:03;;;;;;;1.70;1.00;;;11.10;98.00;;;;;;5031825;28;20991;-68
2023/03/10 04:38:31;;;;;;;1.30;1.00;;;11.10;98.00;;;;;;5031613;28;20453;-67
2023/03/10 04:40:58;;;;;;;1.40;1.10;;;11.00;98.00;;;;;;5032067;28;20523;-67
2023/03/10 04:43:25;;;;;;;3.00;1.10;;;11.00;98.00;;;;;;5031711;28;20553;-67
2023/03/10 04:45:55;;;;;;;1.20;1.00;;;11.00;98.00;;;;;;5030297;28;20463;-67
2023/03/10 04:48:23;;;;;;;1.33;1.10;;;11.10;98.00;;;;;;5031518;28;20458;-67
2023/03/10 04:50:55;;;;;;;2.00;1.10;;;11.10;98.00;;;;;;5030260;28;20538;-67
2023/03/10 04:53:22;;;;;;;1.20;1.00;;;11.20;98.00;;;;;;5031360;28;20459;-67
2023/03/10 04:55:50;;;;;;;1.20;1.00;;;11.20;98.00;;;;;;5031181;28;20936;-67
2023/03/10 04:58:17;;;;;;;1.20;1.03;;;11.10;98.00;;;;;;5031075;28;20486;-67
2023/03/10 05:00:44;;;;;;;1.10;1.00;;;11.20;98.00;;;;;;5031460;28;20504;-67
2023/03/10 05:03:14;;;;;;;1.47;1.20;;;11.10;98.00;;;;;;5030576;28;20460;-68
2023/03/10 05:05:42;;;;;;;1.70;1.40;;;11.10;98.00;;;;;;5031250;28;20837;-67
2023/03/10 05:08:11;;;;;;;1.20;1.10;;;11.10;98.00;;;;;;5031169;28;20465;-67
2023/03/10 05:10:40;;;;;;;4.33;1.57;;;11.10;98.00;;;;;;5031884;28;20458;-67
2023/03/10 05:13:11;;;;;;;1.20;1.10;;;11.10;98.00;;;;;;5031358;28;20553;-67
2023/03/10 05:15:38;;;;;;;1.77;1.10;;;11.20;98.00;;;;;;5031529;28;20455;-67
2023/03/10 05:18:05;;;;;;;1.47;1.43;;;11.10;98.00;;;;;;5029820;28;20517;-67
2023/03/10 05:20:33;;;;;;;2.07;1.27;;;11.30;98.00;;;;;;5031036;28;20460;-67
2023/03/10 05:23:01;;;;;;;1.20;1.10;;;11.30;98.00;;;;;;5031268;28;20982;-67
2023/03/10 05:25:47;;;;;;;1.80;1.10;;;11.30;98.00;;;;;;5030937;28;20969;-67
2023/03/10 05:28:14;;;;;;;1.87;1.17;;;11.20;98.00;;;;;;5031111;28;20463;-67
2023/03/10 05:30:41;;;;;;;1.30;1.20;;;11.10;98.00;;;;;;5030983;28;20465;-67
2023/03/10 05:33:08;;;;;;;1.30;1.20;;;11.10;98.00;;;;;;5031001;28;20853;-68
2023/03/10 05:35:37;;;;;;;1.70;1.10;;;11.10;98.00;;;;;;5030884;28;20458;-67
2023/03/10 05:38:05;;;;;;;1.20;1.10;;;11.00;98.00;;;;;;5031253;28;20946;-67
2023/03/10 05:40:33;;;;;;;1.83;1.30;;;11.00;98.00;;;;;;5029772;28;20516;-67
2023/03/10 05:43:01;;;;;;;1.20;1.00;;;11.00;98.00;;;;;;5029896;28;20457;-68
2023/03/10 05:45:28;;;;;;;1.70;1.20;;;11.00;98.00;;;;;;5030908;28;20594;-67
2023/03/10 05:47:56;;;;;;;1.30;1.20;;;11.00;98.00;;;;;;5030640;28;20488;-67
2023/03/10 05:50:23;;;;;;;1.27;1.03;;;11.00;98.00;;;;;;5030680;28;20454;-67
2023/03/10 05:52:51;;;;;;;1.40;1.40;;;11.10;98.00;;;;;;5029795;28;20470;-67
2023/03/10 05:55:20;;;;;;;1.60;1.30;;;11.10;98.00;;;;;;5030975;28;20464;-67
2023/03/10 05:57:47;;;;;;;1.33;1.10;;;11.10;98.00;;;;;;5030537;28;20889;-67
2023/03/10 06:00:16;;;;;;;1.20;1.10;;;11.10;98.00;;;;;;5030603;28;20457;-68
2023/03/10 06:02:43;;;;;;;1.10;1.03;;;11.10;98.00;;;;;;5030800;28;20466;-67
2023/03/10 06:05:12;;;;;;;1.20;1.07;;;11.20;98.00;;;;;;5030475;28;20467;-68
2023/03/10 06:07:39;;;;;;;1.97;1.10;;;11.30;98.00;;;;;;5030492;28;20486;-67
2023/03/10 06:10:09;;;;;;;1.60;1.10;;;11.20;98.00;;;;;;5030658;28;20518;-67
2023/03/10 06:12:37;;;;;;;1.30;1.10;;;11.30;98.00;;;;;;5030599;28;20458;-67
2023/03/10 06:15:05;;;;;;;1.97;1.10;;;11.30;98.00;;;;;;5043246;28;20463;-68
2023/03/10 06:17:32;;;;;;;1.20;1.13;;;11.30;98.00;;;;;;5054047;28;20831;-67
2023/03/10 06:19:59;;;;;;;1.50;1.17;;;11.30;98.00;;;;;;5054284;28;20471;-67
2023/03/10 06:22:26;;;;;;;1.20;1.10;;;11.30;98.00;;;;;;5046173;28;20450;-67
2023/03/10 06:24:53;;;;;;;1.87;1.10;;;11.30;98.00;;;;;;5052499;28;20469;-67
2023/03/10 06:27:22;;;;;;;1.33;1.00;;;11.20;98.00;;;;;;5053963;28;20484;-67
2023/03/10 06:29:50;;;;;;;1.30;1.30;;;11.00;98.00;;;;;;5053815;28;20506;-67
2023/03/10 06:32:17;;;;;;;1.47;1.00;;;10.90;98.00;;;;;;5054157;28;20458;-68
2023/03/10 06:34:44;;;;;;;2.70;1.17;;;10.90;98.00;;;;;;5053898;28;20465;-67
2023/03/10 06:37:11;;;;;;;1.20;1.00;;;10.90;98.00;;;;;;5054120;28;20464;-67
2023/03/10 06:39:39;;;;;;;1.30;1.10;;;10.80;98.00;;;;;;5053961;28;20461;-67
2023/03/10 06:42:07;;;;;;;1.77;1.20;;;10.80;98.00;;;;;;5036308;28;20457;-68
2023/03/10 06:44:36;;;;;;;1.30;1.13;;;10.80;98.00;;;;;;5053859;28;20514;-67
2023/03/10 06:47:04;;;;;;;1.30;1.10;;;11.00;98.00;;;;;;5053713;28;20508;-67
2023/03/10 06:49:32;;;;;;;1.20;1.10;;;10.90;98.00;;;;;;5053674;28;20542;-67
2023/03/10 06:51:59;;;;;;;1.40;1.30;;;10.80;98.00;;;;;;5053775;28;20460;-67
2023/03/10 06:54:27;;;;;;;1.20;1.10;;;10.60;98.00;;;;;;5053968;28;20462;-67
2023/03/10 06:56:55;;;;;;;1.20;1.00;;;10.60;98.00;;;;;;5053925;28;20801;-67
2023/03/10 06:59:22;;;;;;;1.17;1.07;;;10.60;98.00;;;;;;5053534;28;20466;-67
2023/03/10 07:01:51;;;;;;;1.20;1.00;;;10.60;98.00;;;;;;5053643;28;20803;-63
2023/03/10 07:04:18;;;;;;;1.73;1.30;;;10.70;98.00;;;;;;5053778;28;20460;-63
2023/03/10 07:06:46;;;;;;;1.20;1.10;;;10.90;98.00;;;;;;5053558;28;20861;-64
2023/03/10 07:09:13;;;;;;;1.10;0.93;;;10.90;98.00;;;;;;5035973;28;20465;-62
2023/03/10 07:11:40;;;;;;;1.37;1.23;;;11.00;98.00;;;;;;5053223;28;20464;-62
2023/03/10 07:14:07;;;;;;;1.63;1.30;;;11.00;98.00;;;;;;5053515;28;20974;-63
2023/03/10 07:16:34;;;;;;;1.97;1.20;;;11.10;98.00;;;;;;5053286;28;20459;-62
2023/03/10 07:19:03;;;;;;;1.13;1.00;;;11.10;98.00;;;;;;5053454;28;20960;-64
2023/03/10 07:21:30;;;;;;;1.20;1.10;;;11.10;98.00;;;;;;5053132;28;20530;-62
2023/03/10 07:23:58;;;;;;;1.90;1.00;;;11.10;98.00;;;;;;5052982;28;20456;-63
2023/03/10 07:26:25;;;;;;;1.70;1.10;;;11.20;98.00;;;;;;5052341;28;20866;-63
2023/03/10 07:28:54;;;;;;;1.30;1.20;;;11.20;98.00;;;;;;5053195;28;20471;-63
2023/03/10 07:31:21;;;;;;;1.20;1.00;;;11.10;98.00;;;;;;5035772;28;20986;-64
2023/03/10 07:33:49;;;;;;;1.20;1.07;;;11.30;98.00;;;;;;5052905;28;20473;-63
2023/03/10 07:36:18;;;;;;;1.20;1.00;;;11.40;98.00;;;;;;5053190;28;20510;-63
2023/03/10 07:38:46;;;;;;;1.30;1.00;;;11.30;98.00;;;;;;5053198;28;20453;-63
2023/03/10 07:41:15;;;;;;;1.30;1.17;;;11.20;98.00;;;;;;5053103;28;20461;-63
2023/03/10 07:43:43;;;;;;;1.20;0.97;;;11.20;98.00;;;;;;5035082;28;20535;-63
2023/03/10 07:46:13;;;;;;;1.47;1.30;;;11.10;98.00;;;;;;5052927;28;20491;-64
2023/03/10 07:48:40;;;;;;;1.30;1.20;;;11.10;98.00;;;;;;5052577;28;20578;-62
2023/03/10 07:51:07;;;;;;;1.20;1.00;;;11.10;98.00;;;;;;5052725;28;20467;-62
2023/03/10 07:53:37;;;;;;;2.17;1.10;;;11.20;98.00;;;;;;5052500;28;20465;-63
2023/03/10 07:56:06;;;;;;;1.63;1.37;;;11.30;98.00;;;;;;5034934;28;20456;-62
2023/03/10 07:58:33;;;;;;;2.37;1.30;;;11.40;98.00;;;;;;5052601;28;20497;-63
2023/03/10 08:01:00;;;;;;;1.20;1.10;;;11.40;98.00;;;;;;5052738;28;20462;-62
2023/03/10 08:03:28;;;;;;;1.23;1.03;;;11.40;98.00;;;;;;5052792;28;20461;-63
2023/03/10 08:05:56;;;;;;;1.40;1.10;;;11.50;98.00;;;;;;5052716;28;20457;-63
2023/03/10 08:08:23;;;;;;;1.50;1.20;;;11.40;98.00;;;;;;5052755;28;20543;-62
2023/03/10 08:11:00;;;;;;;1.20;1.10;;;11.50;98.00;;;;;;5052714;28;20979;-62
2023/03/10 08:13:27;;;;;;;1.20;1.00;;;11.50;98.00;;;;;;5051945;28;20547;-62
2023/03/10 08:15:54;;;;;;;1.60;1.00;;;11.50;98.00;;;;;;5034850;28;20457;-63
2023/03/10 08:18:24;;;;;;;1.60;1.10;;;11.70;98.00;;;;;;5052623;28;20457;-65
2023/03/10 08:20:52;;;;;;;1.83;1.20;;;11.60;98.00;;;;;;5052650;28;20853;-61
2023/03/10 08:23:21;;;;;;;1.20;1.00;;;11.50;98.00;;;;;;5053060;28;20811;-63
2023/03/10 08:25:48;;;;;;;1.60;1.10;;;11.60;98.00;;;;;;5052512;28;20826;-64
2023/03/10 08:28:17;;;;;;;1.63;1.07;;;11.70;98.00;;;;;;5052238;28;20496;-63
2023/03/10 08:30:44;;;;;;;1.20;1.10;;;11.60;98.00;;;;;;5050672;28;20467;-62
2023/03/10 08:33:11;;;;;;;1.20;1.13;;;11.50;98.00;;;;;;5052178;28;20473;-65
2023/03/10 08:35:38;;;;;;;2.07;1.30;;;11.50;98.00;;;;;;5052137;28;20461;-62
2023/03/10 08:38:06;;;;;;;1.83;1.03;;;11.60;98.00;;;;;;5051333;28;20852;-62
2023/03/10 08:40:33;;;;;;;1.43;1.03;;;11.50;98.00;;;;;;5052010;28;20830;-62
2023/03/10 08:43:00;;;;;;;1.30;1.10;;;11.10;98.00;;;;;;5051883;28;20807;-62
2023/03/10 08:45:29;;;;;;;1.23;0.97;;;10.80;98.00;;;;;;5051829;28;20548;-64
2023/03/10 08:47:56;;;;;;;1.20;1.10;;;10.40;98.00;;;;;;5051981;28;20493;-62
2023/03/10 08:50:27;;;;;;;1.27;1.07;;;10.30;98.00;;;;;;5046517;28;20459;-62
2023/03/10 08:52:54;;;;;;;1.20;1.03;;;10.10;98.00;;;;;;5049883;28;20462;-62
2023/03/10 08:55:21;;;;;;;1.20;1.00;;;10.00;98.00;;;;;;5051972;28;20848;-63
2023/03/10 08:57:49;;;;;;;1.20;1.00;;;9.90;98.00;;;;;;5051773;28;20465;-62
2023/03/10 09:00:17;;;;;;;1.40;1.20;;;9.70;98.00;;;;;;5034333;28;20948;-62
2023/03/10 09:02:46;;;;;;;1.20;1.00;;;9.60;98.00;;;;;;5051861;28;20569;-63
2023/03/10 09:05:13;;;;;;;1.10;0.90;;;9.50;98.00;;;;;;5051851;28;20473;-62
2023/03/10 09:07:40;;;;;;;1.10;0.90;;;9.40;98.00;;;;;;5034233;28;20492;-63
2023/03/10 09:10:08;;;;;;;1.10;1.00;;;9.40;98.00;;;;;;5051606;28;20468;-62
2023/03/10 09:12:36;;;;;;;1.20;0.90;;;9.40;98.00;;;;;;5046247;28;20874;-63
2023/03/10 09:15:03;;;;;;;1.20;1.10;;;9.30;98.00;;;;;;5030942;28;21001;-64
2023/03/10 09:17:31;;;;;;;1.10;0.93;;;9.40;98.00;;;;;;5031167;28;20463;-62
2023/03/10 09:19:59;;;;;;;1.30;1.10;;;9.30;98.00;;;;;;5030533;28;20460;-62
2023/03/10 09:22:26;;;;;;;1.17;1.07;;;9.40;98.00;;;;;;5031036;28;20793;-62
2023/03/10 09:24:53;;;;;;;1.20;0.90;;;9.70;98.00;;;;;;5031305;28;20463;-62
2023/03/10 09:27:20;;;;;;;1.10;1.00;;;9.80;98.00;;;;;;5030330;28;20468;-62
2023/03/10 09:29:47;;;;;;;1.57;1.10;;;10.10;98.00;;;;;;5031218;28;20474;-64
2023/03/10 09:32:14;;;;;;;1.20;1.00;;;10.10;98.00;;;;;;5030329;28;20454;-63
2023/03/10 09:34:41;;;;;;;1.20;1.10;;;10.10;98.00;;;;;;5031209;28;20473;-63
2023/03/10 09:37:10;;;;;;;1.63;1.00;;;10.40;98.00;;;;;;5031679;28;20924;-63
2023/03/10 09:39:37;;;;;;;1.83;1.20;;;10.50;98.00;;;;;;5031212;28;20463;-63
2023/03/10 09:42:27;;;;;;;1.20;1.00;;;10.70;98.00;;;;;;5031205;28;20532;-62
2023/03/10 09:45:05;;;;;;;2.03;1.20;;;10.90;98.00;;;;;;5031478;28;20466;-63
2023/03/10 09:47:42;;;;;;;1.17;1.00;;;10.90;98.00;;;;;;5031175;28;20482;-63
2023/03/10 09:50:20;;;;;;;1.10;1.00;;;11.20;98.00;;;;;;5033254;28;20525;-63
2023/03/10 09:52:59;;;;;;;1.50;1.13;;;11.40;98.00;;;;;;5033897;28;20514;-63
2023/03/10 09:55:30;;;;;;;1.20;1.20;;;11.50;98.00;;;;;;5035017;28;21056;-62
2023/03/10 09:57:58;;;;;;;1.27;1.10;;;11.70;98.00;;;;;;5035109;28;20465;-62
2023/03/10 10:00:29;;;;;;;1.20;1.00;;;11.80;98.00;;;;;;5034560;28;20809;-62
2023/03/10 10:03:05;;;;;;;1.50;1.10;;;12.00;98.00;;;;;;5035005;28;20459;-63
2023/03/10 10:05:37;;;;;;;1.30;1.10;;;12.10;98.00;;;;;;5035064;28;20476;-63
2023/03/10 10:08:19;;;;;;;1.63;1.03;;;12.20;98.00;;;;;;5035157;28;20550;-63
2023/03/10 10:10:50;;;;;;;1.30;1.10;;;12.20;98.00;;;;;;5034709;28;20473;-63
2023/03/10 10:13:18;;;;;;;2.17;1.20;;;12.20;98.00;;;;;;5034841;28;20468;-64
2023/03/10 10:15:50;;;;;;;1.20;1.10;;;12.10;98.00;;;;;;5034774;28;20924;-63
2023/03/10 10:18:25;;;;;;;2.60;1.50;;;12.00;98.00;;;;;;5035348;28;20460;-62
2023/03/10 10:20:57;;;;;;;1.43;1.10;;;12.00;98.00;;;;;;5029642;28;20465;-62
2023/03/10 10:23:33;;;;;;;1.20;1.10;;;12.20;98.00;;;;;;5034440;28;20462;-63
2023/03/10 10:26:07;;;;;;;2.67;1.20;;;12.50;98.00;;;;;;5034713;28;20489;-62
2023/03/10 10:28:43;;;;;;;1.50;1.10;;;12.60;98.00;;;;;;5034373;28;20482;-63
2023/03/10 10:31:17;;;;;;;1.67;1.20;;;12.70;98.00;;;;;;5034513;28;20451;-62
2023/03/10 10:33:56;;;;;;;1.20;1.00;;;12.50;98.00;;;;;;5032616;28;20466;-63
2023/03/10 10:36:28;;;;;;;1.20;1.00;;;12.30;98.00;;;;;;5034433;28;20471;-63
2023/03/10 10:38:59;;;;;;;1.30;1.00;;;12.10;98.00;;;;;;5034374;28;20454;-63
2023/03/10 10:41:29;;;;;;;1.20;1.00;;;12.10;98.00;;;;;;5034225;28;20462;-63
2023/03/10 10:44:05;;;;;;;1.50;1.03;;;11.90;98.00;;;;;;5049545;28;20484;-62
2023/03/10 10:46:33;;;;;;;1.20;1.00;;;11.70;98.00;;;;;;5053968;28;20502;-62
2023/03/10 10:49:07;;;;;;;1.27;1.00;;;11.50;98.00;;;;;;5053664;28;20490;-62
2023/03/10 10:51:37;;;;;;;1.10;1.00;;;11.40;98.00;;;;;;5053724;28;20463;-62
2023/03/10 10:54:26;;;;;;;1.57;1.20;;;11.60;98.00;;;;;;5053173;28;20949;-63
2023/03/10 10:56:56;;;;;;;1.20;1.00;;;11.60;98.00;;;;;;5053335;28;20459;-63
2023/03/10 10:59:28;;;;;;;2.63;1.10;;;11.60;98.00;;;;;;5052968;28;20502;-62
2023/03/10 11:02:04;;;;;;;1.20;1.00;;;11.70;98.00;;;;;;5052410;28;21010;-63
2023/03/10 11:04:43;;;;;;;3.57;1.33;;;11.60;98.00;;;;;;5053083;28;20459;-63
2023/03/10 11:07:16;;;;;;;1.20;1.00;;;11.60;98.00;;;;;;5053086;28;20463;-62
2023/03/10 11:09:45;;;;;;;1.20;1.00;;;11.50;98.00;;;;;;5052784;28;20497;-64
2023/03/10 11:12:19;;;;;;;1.20;1.00;;;11.50;98.00;;;;;;5053471;28;20824;-62
2023/03/10 11:15:06;;;;;;;1.20;1.03;;;11.50;98.00;;;;;;5052915;28;20460;-63
2023/03/10 11:17:42;;;;;;;1.20;1.10;;;11.50;98.00;;;;;;5053107;28;20483;-62
2023/03/10 11:20:22;;;;;;;1.20;1.00;;;11.60;98.00;;;;;;5053161;28;20463;-62
2023/03/10 11:22:54;;;;;;;1.20;1.10;;;11.70;98.00;;;;;;5052850;28;20548;-63
2023/03/10 11:25:27;;;;;;;2.33;1.20;;;11.90;98.00;;;;;;5052755;28;20464;-62
2023/03/10 11:28:18;;;;;;;1.10;1.00;;;12.10;98.00;;;;;;5052408;28;20458;-62
2023/03/10 11:30:52;;;;;;;1.20;1.00;;;12.10;98.00;;;;;;5034730;28;20874;-63
2023/03/10 11:33:26;;;;;;;1.20;1.07;;;12.10;98.00;;;;;;5052603;28;20787;-63
2023/03/10 11:35:56;;;;;;;8.33;1.10;;;12.10;98.00;;;;;;5052358;28;20464;-62
2023/03/10 11:38:34;;;;;;;1.73;1.20;;;12.20;98.00;;;;;;5034358;28;20515;-62
2023/03/10 11:41:08;;;;;;;1.17;1.00;;;12.10;98.00;;;;;;5052698;28;20486;-65
2023/03/10 11:43:50;;;;;;;2.13;1.30;;;12.10;98.00;;;;;;5052408;28;20465;-63
2023/03/10 11:46:24;;;;;;;1.40;1.10;;;12.10;98.00;;;;;;5052196;28;20526;-62
2023/03/10 11:49:01;;;;;;;1.20;1.00;;;12.10;98.00;;;;;;5051911;28;20569;-63
2023/03/10 11:51:34;;;;;;;1.67;1.20;;;12.00;98.00;;;;;;5052362;28;20468;-62
2023/03/10 11:54:05;;;;;;;1.40;1.10;;;12.00;98.00;;;;;;5052139;28;20465;-64
2023/03/10 11:56:34;;;;;;;1.30;1.10;;;11.90;98.00;;;;;;5052346;28;20455;-63
2023/03/10 11:59:08;;;;;;;1.40;1.10;;;12.00;98.00;;;;;;5050655;28;20951;-63
2023/03/10 12:01:44;;;;;;;1.17;1.10;;;11.90;98.00;;;;;;5052391;28;20550;-62
2023/03/10 12:04:16;;;;;;;1.93;1.20;;;11.90;98.00;;;;;;5051780;28;21038;-62
2023/03/10 12:06:49;;;;;;;1.30;1.10;;;11.90;98.00;;;;;;5051983;28;20458;-61
2023/03/10 12:09:26;;;;;;;1.20;1.00;;;12.10;98.00;;;;;;5051476;28;20511;-62
2023/03/10 12:11:54;;;;;;;2.70;1.20;;;12.20;98.00;;;;;;5051361;28;20530;-62
2023/03/10 12:14:24;;;;;;;3.00;1.30;;;12.20;98.00;;;;;;5051918;28;20964;-64
2023/03/10 12:16:52;;;;;;;1.93;1.00;;;12.20;98.00;;;;;;5051843;28;20548;-62
2023/03/10 12:19:19;;;;;;;2.60;1.20;;;12.20;98.00;;;;;;5051790;28;20943;-63
2023/03/10 12:22:06;;;;;;;1.20;1.00;;;12.00;98.00;;;;;;5051067;28;20483;-62
2023/03/10 12:24:44;;;;;;;1.40;1.00;;;11.90;98.00;;;;;;5049769;28;20461;-63
2023/03/10 12:27:13;;;;;;;1.20;1.10;;;12.00;98.00;;;;;;5032939;28;20462;-63
2023/03/10 12:29:42;;;;;;;1.20;1.00;;;11.80;98.00;;;;;;5051360;28;20491;-62
2023/03/10 12:32:44;;;;;;;1.20;0.97;;;11.80;98.00;;;;;;5051745;28;20475;-63
2023/03/10 12:35:47;;;;;;;1.20;1.00;;;11.70;98.00;;;;;;5034780;28;20498;-64
2023/03/10 12:38:38;;;;;;;1.17;0.90;;;11.70;98.00;;;;;;5035921;28;20498;-62
2023/03/10 12:41:06;;;;;;;2.53;1.40;;;11.70;98.00;;;;;;5051329;28;20464;-61
2023/03/10 12:43:56;;;;;;;1.30;1.10;;;11.80;98.00;;;;;;5051802;28;20569;-67
2023/03/10 12:46:39;;;;;;;1.97;1.10;;;12.00;98.00;;;;;;5033578;28;20456;-67
2023/03/10 12:49:31;;;;;;;1.20;1.00;;;12.20;98.00;;;;;;5051410;28;20517;-67
2023/03/10 12:52:12;;;;;;;1.17;0.97;;;12.40;98.00;;;;;;5051410;28;20809;-62
2023/03/10 12:54:52;;;;;;;1.30;1.00;;;12.10;98.00;;;;;;5033490;28;20460;-62
2023/03/10 12:57:28;;;;;;;1.20;1.00;;;11.90;98.00;;;;;;5050714;28;20527;-63
2023/03/10 13:00:05;;;;;;;1.40;0.97;;;11.70;98.00;;;;;;5050959;28;20966;-63
2023/03/10 13:02:46;;;;;;;1.20;1.00;;;11.70;98.00;;;;;;5051229;28;20477;-63
2023/03/10 13:05:22;;;;;;;1.20;1.00;;;11.60;98.00;;;;;;5051183;28;20460;-63